DLH5TY LIEO-EDDF
Flight info
| Callsign | DLH5TY |
|---|---|
| Flight time | 1h 35m |
| Altitude | 38000 |
| Route | OKIVA P980 DIKEL DCT RATAP DCT MEGER DCT ERTEV DCT ABESI DCT LADOL T163 EMPAX EMPAX5B |
| Aircraft | A320/M-SDE2E3FGIJ1LORWXYZ/HB1 |
Departure
| Time | 2026-05-07 13:05 |
|---|---|
| Airport | Olbia Costa Smeralda Airport (LIEO) |
Arrival
| Time | 2026-05-07 14:40 |
|---|---|
| Airport | Frankfurt Main Airport (EDDF) |
| Time | Latitude | Longitude | Altitude | Speed | Heading |
|---|---|---|---|---|---|
| 2026-05-07 12:30 | 40.90250 | 9.51659 | 33 ft | 0 kts | 325° |
| 2026-05-07 12:52 | 40.90231 | 9.51677 | 34 ft | 4 kts | 318° |
| 2026-05-07 12:53 | 40.90213 | 9.51703 | 33 ft | 4 kts | 298° |
| 2026-05-07 12:53 | 40.90207 | 9.51732 | 32 ft | 4 kts | 242° |
| 2026-05-07 12:53 | 40.90210 | 9.51737 | 34 ft | 0 kts | 234° |
| 2026-05-07 12:56 | 40.90203 | 9.51724 | 34 ft | 6 kts | 235° |
| 2026-05-07 12:56 | 40.90178 | 9.51678 | 34 ft | 6 kts | 234° |
| 2026-05-07 12:56 | 40.90157 | 9.51637 | 34 ft | 6 kts | 236° |
| 2026-05-07 12:57 | 40.90123 | 9.51573 | 34 ft | 9 kts | 235° |
| 2026-05-07 12:57 | 40.90088 | 9.51505 | 34 ft | 9 kts | 237° |
| 2026-05-07 12:57 | 40.90044 | 9.51486 | 34 ft | 7 kts | 156° |
| 2026-05-07 12:57 | 40.89992 | 9.51517 | 34 ft | 10 kts | 173° |
| 2026-05-07 12:58 | 40.89923 | 9.51476 | 34 ft | 11 kts | 225° |
| 2026-05-07 12:58 | 40.89881 | 9.51398 | 34 ft | 10 kts | 235° |
| 2026-05-07 12:58 | 40.89836 | 9.51313 | 34 ft | 16 kts | 235° |
| 2026-05-07 12:58 | 40.89772 | 9.51191 | 33 ft | 15 kts | 235° |
| 2026-05-07 12:59 | 40.89713 | 9.51081 | 34 ft | 14 kts | 236° |
| 2026-05-07 12:59 | 40.89660 | 9.50977 | 34 ft | 13 kts | 235° |
| 2026-05-07 12:59 | 40.89609 | 9.50881 | 34 ft | 12 kts | 235° |
| 2026-05-07 12:59 | 40.89562 | 9.50792 | 34 ft | 11 kts | 235° |
| 2026-05-07 13:00 | 40.89518 | 9.50709 | 33 ft | 11 kts | 235° |
| 2026-05-07 13:00 | 40.89477 | 9.50631 | 34 ft | 10 kts | 235° |
| 2026-05-07 13:00 | 40.89440 | 9.50560 | 34 ft | 9 kts | 235° |
| 2026-05-07 13:00 | 40.89406 | 9.50495 | 34 ft | 8 kts | 237° |
| 2026-05-07 13:01 | 40.89382 | 9.50458 | 34 ft | 0 kts | 214° |
| 2026-05-07 13:03 | 40.89375 | 9.50452 | 34 ft | 6 kts | 212° |
| 2026-05-07 13:03 | 40.89324 | 9.50440 | 34 ft | 7 kts | 175° |
| 2026-05-07 13:03 | 40.89281 | 9.50498 | 34 ft | 12 kts | 106° |
| 2026-05-07 13:04 | 40.89271 | 9.50615 | 35 ft | 13 kts | 72° |
| 2026-05-07 13:04 | 40.89324 | 9.50727 | 34 ft | 16 kts | 56° |
| 2026-05-07 13:04 | 40.89360 | 9.50796 | 31 ft | 0 kts | 55° |
| 2026-05-07 13:04 | 40.89420 | 9.50909 | 33 ft | 50 kts | 55° |
| 2026-05-07 13:05 | 40.89759 | 9.51555 | 35 ft | 118 kts | 55° |
| 2026-05-07 13:05 | 40.90313 | 9.52624 | 245 ft | 151 kts | 56° |
| 2026-05-07 13:05 | 40.90910 | 9.53802 | 893 ft | 158 kts | 56° |
| 2026-05-07 13:05 | 40.91540 | 9.55005 | 1590 ft | 164 kts | 56° |
| 2026-05-07 13:06 | 40.92242 | 9.56326 | 1982 ft | 187 kts | 56° |
| 2026-05-07 13:06 | 40.93037 | 9.57814 | 2368 ft | 210 kts | 55° |
| 2026-05-07 13:06 | 40.93926 | 9.59480 | 2798 ft | 232 kts | 55° |
| 2026-05-07 13:06 | 40.94872 | 9.61251 | 3629 ft | 238 kts | 55° |
| 2026-05-07 13:07 | 40.95837 | 9.63056 | 4546 ft | 242 kts | 55° |
| 2026-05-07 13:07 | 40.96838 | 9.64863 | 5427 ft | 247 kts | 47° |
| 2026-05-07 13:07 | 40.98265 | 9.66141 | 6268 ft | 254 kts | 18° |
| 2026-05-07 13:07 | 41.00046 | 9.66349 | 6914 ft | 269 kts | 348° |
| 2026-05-07 13:08 | 41.01763 | 9.65285 | 7540 ft | 280 kts | 324° |
| 2026-05-07 13:08 | 41.03375 | 9.63807 | 8171 ft | 283 kts | 324° |
| 2026-05-07 13:08 | 41.05005 | 9.62321 | 9098 ft | 286 kts | 324° |
| 2026-05-07 13:08 | 41.06658 | 9.60823 | 10012 ft | 290 kts | 323° |
| 2026-05-07 13:09 | 41.08258 | 9.59076 | 10457 ft | 309 kts | 311° |
| 2026-05-07 13:09 | 41.09610 | 9.56765 | 10926 ft | 323 kts | 303° |
| 2026-05-07 13:09 | 41.10925 | 9.54313 | 11683 ft | 329 kts | 304° |
| 2026-05-07 13:09 | 41.12270 | 9.51838 | 12506 ft | 333 kts | 303° |
| 2026-05-07 13:10 | 41.13636 | 9.49339 | 13318 ft | 336 kts | 303° |
| 2026-05-07 13:10 | 41.15015 | 9.46817 | 14091 ft | 340 kts | 303° |
| 2026-05-07 13:10 | 41.16408 | 9.44266 | 14820 ft | 343 kts | 303° |
| 2026-05-07 13:10 | 41.17811 | 9.41696 | 15542 ft | 345 kts | 302° |
| 2026-05-07 13:11 | 41.19220 | 9.39107 | 16301 ft | 347 kts | 302° |
| 2026-05-07 13:11 | 41.20638 | 9.36503 | 17035 ft | 349 kts | 302° |
| 2026-05-07 13:11 | 41.22063 | 9.33884 | 17765 ft | 351 kts | 302° |
| 2026-05-07 13:11 | 41.23469 | 9.31220 | 18447 ft | 353 kts | 300° |
| 2026-05-07 13:12 | 41.24820 | 9.28490 | 19083 ft | 354 kts | 298° |
| 2026-05-07 13:12 | 41.26141 | 9.25725 | 19753 ft | 355 kts | 298° |
| 2026-05-07 13:12 | 41.27449 | 9.22945 | 20426 ft | 355 kts | 297° |
| 2026-05-07 13:12 | 41.28765 | 9.20158 | 21100 ft | 356 kts | 297° |
| 2026-05-07 13:13 | 41.30088 | 9.17375 | 21766 ft | 357 kts | 298° |
| 2026-05-07 13:13 | 41.31627 | 9.14743 | 22431 ft | 365 kts | 310° |
| 2026-05-07 13:13 | 41.33660 | 9.12651 | 23093 ft | 377 kts | 323° |
| 2026-05-07 13:13 | 41.36111 | 9.11276 | 23685 ft | 391 kts | 338° |
| 2026-05-07 13:14 | 41.38861 | 9.10796 | 24156 ft | 408 kts | 353° |
| 2026-05-07 13:14 | 41.41718 | 9.10890 | 24639 ft | 413 kts | 355° |
| 2026-05-07 13:14 | 41.44608 | 9.10999 | 25051 ft | 418 kts | 354° |
| 2026-05-07 13:14 | 41.46540 | 9.11070 | 25330 ft | 420 kts | 354° |
| 2026-05-07 13:15 | 41.49476 | 9.11174 | 25774 ft | 424 kts | 354° |
| 2026-05-07 13:15 | 41.52434 | 9.11274 | 26201 ft | 427 kts | 354° |
| 2026-05-07 13:15 | 41.55411 | 9.11371 | 26617 ft | 430 kts | 354° |
| 2026-05-07 13:15 | 41.58407 | 9.11415 | 27033 ft | 432 kts | 352° |
| 2026-05-07 13:16 | 41.61431 | 9.11400 | 27393 ft | 435 kts | 352° |
| 2026-05-07 13:16 | 41.64465 | 9.11354 | 27828 ft | 437 kts | 352° |
| 2026-05-07 13:16 | 41.67519 | 9.11295 | 28240 ft | 440 kts | 352° |
| 2026-05-07 13:16 | 41.70591 | 9.11240 | 28626 ft | 443 kts | 351° |
| 2026-05-07 13:17 | 41.73683 | 9.11197 | 28970 ft | 447 kts | 352° |
| 2026-05-07 13:17 | 41.76806 | 9.11167 | 29350 ft | 450 kts | 352° |
| 2026-05-07 13:17 | 41.79944 | 9.11145 | 29681 ft | 453 kts | 352° |
| 2026-05-07 13:17 | 41.83103 | 9.11122 | 30067 ft | 455 kts | 352° |
| 2026-05-07 13:18 | 41.86277 | 9.11099 | 30412 ft | 457 kts | 352° |
| 2026-05-07 13:18 | 41.89461 | 9.11078 | 30708 ft | 459 kts | 352° |
| 2026-05-07 13:18 | 41.92666 | 9.11057 | 30983 ft | 462 kts | 352° |
| 2026-05-07 13:18 | 41.95882 | 9.11037 | 31291 ft | 463 kts | 352° |
| 2026-05-07 13:19 | 41.99112 | 9.11013 | 31573 ft | 465 kts | 352° |
| 2026-05-07 13:19 | 42.02350 | 9.10985 | 31952 ft | 465 kts | 352° |
| 2026-05-07 13:19 | 42.05580 | 9.10963 | 32386 ft | 464 kts | 352° |
| 2026-05-07 13:19 | 42.08810 | 9.10943 | 32819 ft | 464 kts | 352° |
| 2026-05-07 13:20 | 42.12035 | 9.10923 | 33264 ft | 463 kts | 352° |
| 2026-05-07 13:20 | 42.15211 | 9.10902 | 33719 ft | 462 kts | 352° |
| 2026-05-07 13:20 | 42.18460 | 9.10879 | 34113 ft | 460 kts | 352° |
| 2026-05-07 13:20 | 42.21616 | 9.10855 | 34402 ft | 460 kts | 352° |
| 2026-05-07 13:21 | 42.24818 | 9.10830 | 34683 ft | 460 kts | 352° |
| 2026-05-07 13:21 | 42.28020 | 9.10806 | 35052 ft | 460 kts | 352° |
| 2026-05-07 13:21 | 42.31217 | 9.10780 | 35394 ft | 459 kts | 352° |
| 2026-05-07 13:21 | 42.34403 | 9.10754 | 35735 ft | 458 kts | 352° |
| 2026-05-07 13:22 | 42.37591 | 9.10726 | 36019 ft | 458 kts | 352° |
| 2026-05-07 13:22 | 42.40774 | 9.10697 | 36295 ft | 458 kts | 352° |
| 2026-05-07 13:22 | 42.43958 | 9.10672 | 36532 ft | 458 kts | 352° |
| 2026-05-07 13:22 | 42.47142 | 9.10647 | 36742 ft | 457 kts | 352° |
| 2026-05-07 13:23 | 42.50325 | 9.10619 | 37029 ft | 457 kts | 352° |
| 2026-05-07 13:23 | 42.53502 | 9.10593 | 37390 ft | 456 kts | 352° |
| 2026-05-07 13:23 | 42.56677 | 9.10568 | 37649 ft | 456 kts | 352° |
| 2026-05-07 13:23 | 42.59855 | 9.10544 | 37875 ft | 457 kts | 352° |
| 2026-05-07 13:24 | 42.63032 | 9.10518 | 37989 ft | 456 kts | 352° |
| 2026-05-07 13:24 | 42.66204 | 9.10491 | 38024 ft | 455 kts | 352° |
| 2026-05-07 13:24 | 42.72529 | 9.10478 | 38002 ft | 457 kts | 356° |
| 2026-05-07 13:25 | 42.78896 | 9.11198 | 38005 ft | 459 kts | 358° |
| 2026-05-07 13:25 | 42.85262 | 9.11956 | 38005 ft | 459 kts | 358° |
| 2026-05-07 13:26 | 42.91619 | 9.12701 | 38003 ft | 458 kts | 358° |
| 2026-05-07 13:26 | 42.97964 | 9.13440 | 38001 ft | 458 kts | 358° |
| 2026-05-07 13:27 | 43.04315 | 9.14175 | 38003 ft | 458 kts | 358° |
| 2026-05-07 13:27 | 43.10667 | 9.14931 | 38016 ft | 458 kts | 358° |
| 2026-05-07 13:28 | 43.17017 | 9.15678 | 38016 ft | 458 kts | 358° |
| 2026-05-07 13:28 | 43.23372 | 9.16422 | 38015 ft | 458 kts | 358° |
| 2026-05-07 13:29 | 43.29720 | 9.16997 | 38039 ft | 452 kts | 351° |
| 2026-05-07 13:29 | 43.35766 | 9.15471 | 38032 ft | 435 kts | 333° |
| 2026-05-07 13:30 | 43.41156 | 9.11954 | 38020 ft | 427 kts | 326° |
| 2026-05-07 13:30 | 43.46437 | 9.08197 | 38028 ft | 428 kts | 326° |
| 2026-05-07 13:31 | 43.51731 | 9.04445 | 38027 ft | 428 kts | 326° |
| 2026-05-07 13:31 | 43.56989 | 9.00713 | 38015 ft | 428 kts | 326° |
| 2026-05-07 13:32 | 43.62396 | 8.97208 | 38007 ft | 436 kts | 336° |
| 2026-05-07 13:32 | 43.68475 | 8.95959 | 38020 ft | 452 kts | 355° |
| 2026-05-07 13:33 | 43.74812 | 8.96182 | 38010 ft | 453 kts | 355° |
| 2026-05-07 13:33 | 43.81106 | 8.96398 | 38008 ft | 453 kts | 355° |
| 2026-05-07 13:34 | 43.90561 | 8.96693 | 38028 ft | 453 kts | 355° |
| 2026-05-07 13:35 | 43.96815 | 8.96897 | 38022 ft | 453 kts | 355° |
| 2026-05-07 13:35 | 44.03118 | 8.97104 | 38018 ft | 453 kts | 355° |
| 2026-05-07 13:36 | 44.09412 | 8.97307 | 38035 ft | 453 kts | 355° |
| 2026-05-07 13:36 | 44.15747 | 8.97506 | 38027 ft | 452 kts | 355° |
| 2026-05-07 13:37 | 44.22038 | 8.97712 | 38018 ft | 452 kts | 355° |
| 2026-05-07 13:37 | 44.28326 | 8.97920 | 38041 ft | 452 kts | 355° |
| 2026-05-07 13:38 | 44.34568 | 8.98131 | 38051 ft | 452 kts | 355° |
| 2026-05-07 13:38 | 44.40849 | 8.98335 | 38043 ft | 451 kts | 355° |
| 2026-05-07 13:39 | 44.47126 | 8.98533 | 38039 ft | 451 kts | 355° |
| 2026-05-07 13:39 | 44.53405 | 8.98749 | 38037 ft | 451 kts | 355° |
| 2026-05-07 13:40 | 44.59681 | 8.98959 | 38019 ft | 451 kts | 355° |
| 2026-05-07 13:40 | 44.65958 | 8.99164 | 38025 ft | 451 kts | 355° |
| 2026-05-07 13:41 | 44.72229 | 8.99374 | 38008 ft | 451 kts | 356° |
| 2026-05-07 13:41 | 44.78497 | 8.99583 | 37998 ft | 450 kts | 355° |
| 2026-05-07 13:42 | 44.84757 | 8.99782 | 38008 ft | 450 kts | 355° |
| 2026-05-07 13:42 | 44.91014 | 8.99990 | 37998 ft | 450 kts | 355° |
| 2026-05-07 13:43 | 44.97272 | 9.00207 | 37989 ft | 450 kts | 355° |
| 2026-05-07 13:43 | 45.03529 | 9.00425 | 38008 ft | 450 kts | 356° |
| 2026-05-07 13:44 | 45.09780 | 9.00643 | 37997 ft | 450 kts | 356° |
| 2026-05-07 13:44 | 45.16039 | 9.00852 | 38010 ft | 450 kts | 355° |
| 2026-05-07 13:45 | 45.22297 | 9.01055 | 38012 ft | 450 kts | 355° |
| 2026-05-07 13:45 | 45.28556 | 9.01263 | 37992 ft | 450 kts | 356° |
| 2026-05-07 13:46 | 45.34817 | 9.01479 | 37988 ft | 450 kts | 356° |
| 2026-05-07 13:46 | 45.41035 | 9.01697 | 37989 ft | 450 kts | 356° |
| 2026-05-07 13:47 | 45.47302 | 9.01905 | 38005 ft | 450 kts | 356° |
| 2026-05-07 13:47 | 45.53563 | 9.02111 | 37997 ft | 450 kts | 356° |
| 2026-05-07 13:48 | 45.59821 | 9.02329 | 38007 ft | 450 kts | 356° |
| 2026-05-07 13:48 | 45.66081 | 9.02550 | 38021 ft | 450 kts | 356° |
| 2026-05-07 13:49 | 45.72337 | 9.02777 | 38008 ft | 449 kts | 356° |
| 2026-05-07 13:49 | 45.78542 | 9.02981 | 38010 ft | 449 kts | 356° |
| 2026-05-07 13:50 | 45.84782 | 9.03196 | 38029 ft | 448 kts | 356° |
| 2026-05-07 13:50 | 45.91020 | 9.03411 | 38021 ft | 448 kts | 356° |
| 2026-05-07 13:51 | 45.97255 | 9.03627 | 38015 ft | 448 kts | 356° |
| 2026-05-07 13:51 | 46.03493 | 9.03849 | 38023 ft | 448 kts | 356° |
| 2026-05-07 13:52 | 46.09733 | 9.04065 | 38013 ft | 449 kts | 356° |
| 2026-05-07 13:52 | 46.15980 | 9.04276 | 38011 ft | 449 kts | 356° |
| 2026-05-07 13:53 | 46.22211 | 9.04196 | 38022 ft | 447 kts | 353° |
| 2026-05-07 13:53 | 46.28425 | 9.03825 | 38018 ft | 447 kts | 353° |
| 2026-05-07 13:54 | 46.34646 | 9.03460 | 38010 ft | 447 kts | 353° |
| 2026-05-07 13:54 | 46.40873 | 9.03175 | 38006 ft | 448 kts | 353° |
| 2026-05-07 13:55 | 46.47102 | 9.02920 | 38001 ft | 448 kts | 354° |
| 2026-05-07 13:55 | 46.53342 | 9.02663 | 38011 ft | 449 kts | 353° |
| 2026-05-07 13:56 | 46.59585 | 9.02394 | 38009 ft | 448 kts | 353° |
| 2026-05-07 13:56 | 46.65814 | 9.02117 | 38027 ft | 448 kts | 353° |
| 2026-05-07 13:57 | 46.72048 | 9.01840 | 38034 ft | 448 kts | 354° |
| 2026-05-07 13:57 | 46.78279 | 9.01568 | 38029 ft | 448 kts | 354° |
| 2026-05-07 13:58 | 46.84517 | 9.01301 | 38047 ft | 448 kts | 354° |
| 2026-05-07 13:58 | 46.90752 | 9.01032 | 38051 ft | 448 kts | 354° |
| 2026-05-07 13:59 | 46.96986 | 9.00753 | 38061 ft | 448 kts | 354° |
| 2026-05-07 13:59 | 47.02160 | 9.00517 | 38062 ft | 447 kts | 354° |
| 2026-05-07 14:00 | 47.08374 | 9.00242 | 38067 ft | 447 kts | 354° |
| 2026-05-07 14:00 | 47.14590 | 8.99965 | 38065 ft | 447 kts | 354° |
| 2026-05-07 14:01 | 47.20812 | 8.99681 | 38068 ft | 447 kts | 354° |
| 2026-05-07 14:01 | 47.27036 | 8.99396 | 38074 ft | 448 kts | 354° |
| 2026-05-07 14:02 | 47.33270 | 8.99128 | 38065 ft | 448 kts | 354° |
| 2026-05-07 14:02 | 47.39500 | 8.98858 | 38059 ft | 448 kts | 354° |
| 2026-05-07 14:03 | 47.45731 | 8.98570 | 38070 ft | 448 kts | 354° |
| 2026-05-07 14:03 | 47.51950 | 8.98284 | 38065 ft | 448 kts | 354° |
| 2026-05-07 14:04 | 47.58181 | 8.97995 | 38063 ft | 448 kts | 354° |
| 2026-05-07 14:04 | 47.64414 | 8.97720 | 38063 ft | 448 kts | 355° |
| 2026-05-07 14:05 | 47.70620 | 8.97447 | 38068 ft | 448 kts | 355° |
| 2026-05-07 14:05 | 47.76846 | 8.97164 | 38064 ft | 448 kts | 355° |
| 2026-05-07 14:06 | 47.83072 | 8.96880 | 38059 ft | 447 kts | 355° |
| 2026-05-07 14:06 | 47.89295 | 8.96597 | 38067 ft | 447 kts | 355° |
| 2026-05-07 14:07 | 47.95528 | 8.96321 | 37421 ft | 450 kts | 355° |
| 2026-05-07 14:07 | 47.98661 | 8.96170 | 36811 ft | 448 kts | 355° |
| 2026-05-07 14:07 | 48.01776 | 8.96019 | 36559 ft | 447 kts | 355° |
| 2026-05-07 14:07 | 48.04880 | 8.95872 | 36304 ft | 445 kts | 355° |
| 2026-05-07 14:08 | 48.07977 | 8.95732 | 35438 ft | 447 kts | 355° |
| 2026-05-07 14:08 | 48.11044 | 8.95596 | 34307 ft | 446 kts | 355° |
| 2026-05-07 14:08 | 48.14125 | 8.95461 | 33255 ft | 440 kts | 355° |
| 2026-05-07 14:08 | 48.17154 | 8.95419 | 32247 ft | 433 kts | 359° |
| 2026-05-07 14:09 | 48.20141 | 8.95655 | 31282 ft | 426 kts | 2° |
| 2026-05-07 14:09 | 48.23071 | 8.96050 | 30361 ft | 420 kts | 4° |
| 2026-05-07 14:09 | 48.25951 | 8.96540 | 29346 ft | 413 kts | 5° |
| 2026-05-07 14:09 | 48.28786 | 8.97059 | 28331 ft | 407 kts | 5° |
| 2026-05-07 14:10 | 48.31578 | 8.97559 | 27369 ft | 401 kts | 4° |
| 2026-05-07 14:10 | 48.34329 | 8.98027 | 26436 ft | 395 kts | 4° |
| 2026-05-07 14:10 | 48.37039 | 8.98463 | 25540 ft | 389 kts | 4° |
| 2026-05-07 14:10 | 48.39716 | 8.98874 | 24677 ft | 384 kts | 3° |
| 2026-05-07 14:11 | 48.42357 | 8.99267 | 23839 ft | 379 kts | 3° |
| 2026-05-07 14:11 | 48.44966 | 8.99648 | 22908 ft | 374 kts | 3° |
| 2026-05-07 14:11 | 48.47541 | 9.00025 | 21998 ft | 370 kts | 3° |
| 2026-05-07 14:11 | 48.50060 | 9.00403 | 21550 ft | 354 kts | 3° |
| 2026-05-07 14:12 | 48.52469 | 9.00775 | 21018 ft | 343 kts | 3° |
| 2026-05-07 14:12 | 48.54868 | 9.01147 | 20105 ft | 353 kts | 3° |
| 2026-05-07 14:12 | 48.57339 | 9.01522 | 19480 ft | 357 kts | 3° |
| 2026-05-07 14:12 | 48.59763 | 9.01893 | 19339 ft | 345 kts | 3° |
| 2026-05-07 14:13 | 48.62179 | 9.02261 | 18632 ft | 353 kts | 3° |
| 2026-05-07 14:13 | 48.64623 | 9.02691 | 18142 ft | 353 kts | 5° |
| 2026-05-07 14:13 | 48.67018 | 9.03228 | 18001 ft | 342 kts | 6° |
| 2026-05-07 14:13 | 48.69327 | 9.03804 | 18026 ft | 333 kts | 6° |
| 2026-05-07 14:14 | 48.71601 | 9.04384 | 18029 ft | 331 kts | 6° |
| 2026-05-07 14:14 | 48.73865 | 9.04959 | 18033 ft | 330 kts | 6° |
| 2026-05-07 14:14 | 48.76127 | 9.05522 | 18030 ft | 329 kts | 6° |
| 2026-05-07 14:14 | 48.78390 | 9.06075 | 18029 ft | 329 kts | 6° |
| 2026-05-07 14:15 | 48.80653 | 9.06618 | 18029 ft | 329 kts | 6° |
| 2026-05-07 14:15 | 48.82916 | 9.07155 | 18031 ft | 329 kts | 6° |
| 2026-05-07 14:15 | 48.85179 | 9.07691 | 18030 ft | 329 kts | 6° |
| 2026-05-07 14:15 | 48.87442 | 9.08229 | 18031 ft | 329 kts | 6° |
| 2026-05-07 14:16 | 48.89706 | 9.08721 | 18031 ft | 329 kts | 4° |
| 2026-05-07 14:16 | 48.91976 | 9.09091 | 18033 ft | 328 kts | 2° |
| 2026-05-07 14:16 | 48.94251 | 9.09397 | 18033 ft | 328 kts | 1° |
| 2026-05-07 14:16 | 48.96493 | 9.09681 | 18035 ft | 327 kts | 2° |
| 2026-05-07 14:17 | 48.98691 | 9.09960 | 18033 ft | 327 kts | 2° |
| 2026-05-07 14:17 | 49.00926 | 9.10251 | 18037 ft | 327 kts | 2° |
| 2026-05-07 14:17 | 49.03222 | 9.10561 | 18037 ft | 327 kts | 2° |
| 2026-05-07 14:17 | 49.05471 | 9.10876 | 18038 ft | 327 kts | 2° |
| 2026-05-07 14:18 | 49.07704 | 9.11193 | 17936 ft | 328 kts | 2° |
| 2026-05-07 14:18 | 49.09967 | 9.11518 | 17663 ft | 325 kts | 2° |
| 2026-05-07 14:18 | 49.12212 | 9.11842 | 17395 ft | 323 kts | 2° |
| 2026-05-07 14:18 | 49.14417 | 9.12158 | 17133 ft | 322 kts | 3° |
| 2026-05-07 14:19 | 49.16658 | 9.12480 | 16878 ft | 320 kts | 3° |
| 2026-05-07 14:19 | 49.18868 | 9.12797 | 16617 ft | 318 kts | 3° |
| 2026-05-07 14:19 | 49.21067 | 9.13109 | 16358 ft | 317 kts | 3° |
| 2026-05-07 14:19 | 49.23260 | 9.13424 | 16094 ft | 315 kts | 3° |
| 2026-05-07 14:20 | 49.25434 | 9.13740 | 15903 ft | 312 kts | 3° |
| 2026-05-07 14:20 | 49.27597 | 9.14053 | 16024 ft | 314 kts | 4° |
| 2026-05-07 14:20 | 49.29763 | 9.14634 | 15847 ft | 318 kts | 11° |
| 2026-05-07 14:20 | 49.31891 | 9.15376 | 15325 ft | 322 kts | 11° |
| 2026-05-07 14:21 | 49.34124 | 9.16173 | 14865 ft | 323 kts | 12° |
| 2026-05-07 14:21 | 49.36309 | 9.16959 | 14418 ft | 323 kts | 11° |
| 2026-05-07 14:21 | 49.38500 | 9.17743 | 13977 ft | 322 kts | 11° |
| 2026-05-07 14:21 | 49.40646 | 9.18506 | 13503 ft | 310 kts | 11° |
| 2026-05-07 14:22 | 49.42724 | 9.19242 | 13087 ft | 305 kts | 11° |
| 2026-05-07 14:22 | 49.44788 | 9.19974 | 12667 ft | 304 kts | 11° |
| 2026-05-07 14:22 | 49.46849 | 9.20708 | 12247 ft | 303 kts | 11° |
| 2026-05-07 14:22 | 49.48902 | 9.21438 | 11829 ft | 302 kts | 11° |
| 2026-05-07 14:23 | 49.50950 | 9.22166 | 11419 ft | 302 kts | 11° |
| 2026-05-07 14:23 | 49.52992 | 9.22895 | 11006 ft | 301 kts | 11° |
| 2026-05-07 14:23 | 49.55004 | 9.23612 | 10874 ft | 293 kts | 11° |
| 2026-05-07 14:23 | 49.56987 | 9.24322 | 10795 ft | 292 kts | 11° |
| 2026-05-07 14:24 | 49.58934 | 9.25020 | 10688 ft | 291 kts | 11° |
| 2026-05-07 14:24 | 49.60938 | 9.25642 | 10521 ft | 288 kts | 2° |
| 2026-05-07 14:24 | 49.62870 | 9.25333 | 10282 ft | 282 kts | 340° |
| 2026-05-07 14:24 | 49.64593 | 9.23956 | 10039 ft | 279 kts | 324° |
| 2026-05-07 14:25 | 49.66182 | 9.22241 | 9876 ft | 279 kts | 323° |
| 2026-05-07 14:25 | 49.67767 | 9.20518 | 9755 ft | 279 kts | 323° |
| 2026-05-07 14:25 | 49.69352 | 9.18793 | 9625 ft | 278 kts | 323° |
| 2026-05-07 14:25 | 49.70928 | 9.17073 | 9480 ft | 277 kts | 323° |
| 2026-05-07 14:26 | 49.72504 | 9.15353 | 9354 ft | 277 kts | 323° |
| 2026-05-07 14:26 | 49.74076 | 9.13638 | 9235 ft | 276 kts | 323° |
| 2026-05-07 14:26 | 49.75641 | 9.11928 | 9083 ft | 275 kts | 323° |
| 2026-05-07 14:26 | 49.77205 | 9.10217 | 8963 ft | 275 kts | 323° |
| 2026-05-07 14:27 | 49.78763 | 9.08512 | 8822 ft | 274 kts | 323° |
| 2026-05-07 14:27 | 49.80319 | 9.06810 | 8692 ft | 274 kts | 323° |
| 2026-05-07 14:27 | 49.81878 | 9.05103 | 8558 ft | 274 kts | 323° |
| 2026-05-07 14:27 | 49.83434 | 9.03398 | 8427 ft | 274 kts | 323° |
| 2026-05-07 14:28 | 49.84985 | 9.01697 | 8304 ft | 273 kts | 323° |
| 2026-05-07 14:28 | 49.86531 | 8.99999 | 8179 ft | 272 kts | 323° |
| 2026-05-07 14:28 | 49.88072 | 8.98304 | 8045 ft | 271 kts | 323° |
| 2026-05-07 14:28 | 49.89610 | 8.96609 | 7917 ft | 271 kts | 324° |
| 2026-05-07 14:29 | 49.91145 | 8.94921 | 7792 ft | 270 kts | 324° |
| 2026-05-07 14:29 | 49.92725 | 8.93340 | 7661 ft | 270 kts | 331° |
| 2026-05-07 14:29 | 49.94454 | 8.92202 | 7537 ft | 271 kts | 341° |
| 2026-05-07 14:29 | 49.96291 | 8.91546 | 7409 ft | 271 kts | 351° |
| 2026-05-07 14:30 | 49.98175 | 8.91403 | 7285 ft | 272 kts | 0° |
| 2026-05-07 14:30 | 50.00027 | 8.91941 | 7152 ft | 274 kts | 25° |
| 2026-05-07 14:30 | 50.01419 | 8.93928 | 7035 ft | 278 kts | 59° |
| 2026-05-07 14:30 | 50.01863 | 8.96818 | 6906 ft | 280 kts | 94° |
| 2026-05-07 14:31 | 50.01490 | 8.99800 | 6782 ft | 282 kts | 99° |
| 2026-05-07 14:31 | 50.01478 | 9.02816 | 6656 ft | 279 kts | 78° |
| 2026-05-07 14:31 | 50.02186 | 9.05591 | 6536 ft | 276 kts | 54° |
| 2026-05-07 14:31 | 50.03429 | 9.07844 | 6412 ft | 275 kts | 45° |
| 2026-05-07 14:32 | 50.04732 | 9.10015 | 6269 ft | 274 kts | 45° |
| 2026-05-07 14:32 | 50.06034 | 9.12176 | 6149 ft | 275 kts | 45° |
| 2026-05-07 14:32 | 50.07397 | 9.14249 | 6016 ft | 271 kts | 32° |
| 2026-05-07 14:32 | 50.09114 | 9.15320 | 5888 ft | 266 kts | 5° |
| 2026-05-07 14:33 | 50.10932 | 9.15122 | 5759 ft | 261 kts | 344° |
| 2026-05-07 14:33 | 50.12522 | 9.14061 | 5623 ft | 238 kts | 326° |
| 2026-05-07 14:33 | 50.13738 | 9.12412 | 5491 ft | 230 kts | 309° |
| 2026-05-07 14:33 | 50.14582 | 9.10300 | 5364 ft | 230 kts | 293° |
| 2026-05-07 14:34 | 50.14994 | 9.07911 | 5235 ft | 229 kts | 276° |
| 2026-05-07 14:34 | 50.14944 | 9.05429 | 5107 ft | 230 kts | 260° |
| 2026-05-07 14:34 | 50.14469 | 9.03059 | 4983 ft | 230 kts | 251° |
| 2026-05-07 14:34 | 50.13921 | 9.00716 | 4853 ft | 230 kts | 251° |
| 2026-05-07 14:35 | 50.13376 | 8.98375 | 4722 ft | 229 kts | 252° |
| 2026-05-07 14:35 | 50.12831 | 8.96045 | 4593 ft | 229 kts | 252° |
| 2026-05-07 14:35 | 50.12264 | 8.93620 | 4454 ft | 246 kts | 252° |
| 2026-05-07 14:35 | 50.11699 | 8.91214 | 4323 ft | 231 kts | 252° |
| 2026-05-07 14:36 | 50.11148 | 8.88866 | 4194 ft | 229 kts | 252° |
| 2026-05-07 14:36 | 50.10601 | 8.86540 | 4075 ft | 229 kts | 251° |
| 2026-05-07 14:36 | 50.10056 | 8.84221 | 3987 ft | 228 kts | 252° |
| 2026-05-07 14:36 | 50.09505 | 8.81881 | 3573 ft | 227 kts | 251° |
| 2026-05-07 14:37 | 50.08973 | 8.79630 | 3257 ft | 216 kts | 252° |
| 2026-05-07 14:37 | 50.07984 | 8.75438 | 2684 ft | 196 kts | 252° |
| 2026-05-07 14:37 | 50.07529 | 8.73515 | 2464 ft | 192 kts | 251° |
| 2026-05-07 14:38 | 50.07072 | 8.71582 | 2178 ft | 196 kts | 252° |
| 2026-05-07 14:38 | 50.06606 | 8.69611 | 1891 ft | 188 kts | 251° |
| 2026-05-07 14:38 | 50.06162 | 8.67743 | 1645 ft | 178 kts | 251° |
| 2026-05-07 14:38 | 50.05752 | 8.66015 | 1408 ft | 163 kts | 252° |
| 2026-05-07 14:39 | 50.05381 | 8.64454 | 1202 ft | 147 kts | 251° |
| 2026-05-07 14:39 | 50.05040 | 8.63016 | 1004 ft | 138 kts | 250° |
| 2026-05-07 14:39 | 50.04714 | 8.61644 | 813 ft | 133 kts | 250° |
| 2026-05-07 14:39 | 50.04403 | 8.60324 | 660 ft | 128 kts | 251° |
| 2026-05-07 14:40 | 50.04090 | 8.59038 | 462 ft | 126 kts | 250° |
| 2026-05-07 14:40 | 50.03788 | 8.57784 | 370 ft | 122 kts | 250° |
| 2026-05-07 14:40 | 50.03538 | 8.56718 | 351 ft | 81 kts | 249° |
| 2026-05-07 14:40 | 50.03399 | 8.56125 | 356 ft | 45 kts | 250° |
| 2026-05-07 14:41 | 50.03309 | 8.55703 | 343 ft | 29 kts | 262° |
| 2026-05-07 14:41 | 50.03321 | 8.55427 | 348 ft | 10 kts | 281° |
| 2026-05-07 14:41 | 50.03321 | 8.55422 | 346 ft | 1 kts | 281° |
| 2026-05-07 14:41 | 50.03327 | 8.55373 | 343 ft | 8 kts | 278° |
| 2026-05-07 14:42 | 50.03338 | 8.55264 | 343 ft | 12 kts | 283° |
| 2026-05-07 14:42 | 50.03355 | 8.55121 | 342 ft | 14 kts | 279° |
| 2026-05-07 14:42 | 50.03367 | 8.54984 | 342 ft | 13 kts | 270° |
| 2026-05-07 14:42 | 50.03338 | 8.54828 | 338 ft | 17 kts | 249° |
| 2026-05-07 14:43 | 50.03296 | 8.54645 | 336 ft | 19 kts | 250° |
| 2026-05-07 14:43 | 50.03292 | 8.54496 | 336 ft | 11 kts | 313° |
| 2026-05-07 14:43 | 50.03350 | 8.54459 | 335 ft | 7 kts | 339° |
| 2026-05-07 14:43 | 50.03387 | 8.54437 | 338 ft | 5 kts | 339° |
| 2026-05-07 14:44 | 50.03389 | 8.54436 | 339 ft | 0 kts | 339° |
| 2026-05-07 14:45 | 50.03398 | 8.54431 | 341 ft | 9 kts | 339° |
| 2026-05-07 14:45 | 50.03480 | 8.54383 | 346 ft | 22 kts | 340° |
| 2026-05-07 14:45 | 50.03579 | 8.54322 | 349 ft | 0 kts | 340° |
| 2026-05-07 14:46 | 50.03585 | 8.54318 | 347 ft | 5 kts | 341° |
| 2026-05-07 14:46 | 50.03622 | 8.54306 | 350 ft | 5 kts | 359° |
| 2026-05-07 14:46 | 50.03649 | 8.54318 | 351 ft | 0 kts | 28° |
| 2026-05-07 14:47 | 50.03670 | 8.54365 | 346 ft | 9 kts | 63° |
| 2026-05-07 14:48 | 50.03691 | 8.54452 | 344 ft | 8 kts | 70° |
| 2026-05-07 14:48 | 50.03710 | 8.54535 | 350 ft | 7 kts | 70° |
| 2026-05-07 14:48 | 50.03732 | 8.54608 | 351 ft | 7 kts | 62° |
| 2026-05-07 14:48 | 50.03757 | 8.54720 | 350 ft | 20 kts | 71° |
| 2026-05-07 14:49 | 50.03803 | 8.54922 | 351 ft | 19 kts | 69° |
| 2026-05-07 14:49 | 50.03846 | 8.55103 | 351 ft | 17 kts | 70° |
| 2026-05-07 14:49 | 50.03891 | 8.55294 | 355 ft | 21 kts | 70° |
| 2026-05-07 14:49 | 50.03943 | 8.55507 | 351 ft | 21 kts | 71° |
| 2026-05-07 14:50 | 50.03993 | 8.55715 | 349 ft | 20 kts | 70° |
| 2026-05-07 14:50 | 50.04037 | 8.55902 | 352 ft | 17 kts | 69° |
| 2026-05-07 14:50 | 50.04079 | 8.56069 | 353 ft | 16 kts | 69° |
| 2026-05-07 14:50 | 50.04112 | 8.56217 | 358 ft | 12 kts | 68° |
| 2026-05-07 14:51 | 50.04171 | 8.56246 | 353 ft | 9 kts | 342° |
| 2026-05-07 14:51 | 50.04229 | 8.56213 | 356 ft | 11 kts | 339° |
| 2026-05-07 14:51 | 50.04286 | 8.56148 | 357 ft | 12 kts | 284° |
| 2026-05-07 14:51 | 50.04346 | 8.56054 | 357 ft | 14 kts | 340° |
| 2026-05-07 14:52 | 50.04424 | 8.56038 | 358 ft | 11 kts | 26° |
| 2026-05-07 14:52 | 50.04445 | 8.56124 | 362 ft | 7 kts | 118° |
| 2026-05-07 14:52 | 50.04408 | 8.56155 | 356 ft | 4 kts | 154° |
| 2026-05-07 14:52 | 50.04396 | 8.56164 | 362 ft | 1 kts | 155° |
| 2026-05-07 14:53 | 50.04389 | 8.56169 | 360 ft | 0 kts | 155° |